sensor_id;sensor_type;location;lat;lon;timestamp;P1;durP1;ratioP1;P2;durP2;ratioP2
62633;SDS011;48704;50.534;6.442;2024-03-23T00:52:41;4.25;;;1.73;;
62633;SDS011;48704;50.534;6.442;2024-03-23T00:55:06;3.60;;;1.88;;
62633;SDS011;48704;50.534;6.442;2024-03-23T00:57:32;2.95;;;1.27;;
62633;SDS011;48704;50.534;6.442;2024-03-23T00:59:58;3.13;;;1.25;;
62633;SDS011;48704;50.534;6.442;2024-03-23T01:02:23;3.00;;;1.33;;
62633;SDS011;48704;50.534;6.442;2024-03-23T01:04:48;4.43;;;1.70;;
62633;SDS011;48704;50.534;6.442;2024-03-23T01:07:13;2.72;;;1.30;;
62633;SDS011;48704;50.534;6.442;2024-03-23T01:09:39;2.83;;;1.08;;
62633;SDS011;48704;50.534;6.442;2024-03-23T01:12:04;2.75;;;1.20;;
62633;SDS011;48704;50.534;6.442;2024-03-23T01:14:30;1.80;;;0.65;;
62633;SDS011;48704;50.534;6.442;2024-03-23T01:16:55;1.60;;;0.63;;
62633;SDS011;48704;50.534;6.442;2024-03-23T01:19:21;2.17;;;0.73;;
62633;SDS011;48704;50.534;6.442;2024-03-23T01:21:46;1.88;;;0.70;;
62633;SDS011;48704;50.534;6.442;2024-03-23T01:24:11;1.52;;;0.68;;
62633;SDS011;48704;50.534;6.442;2024-03-23T01:26:36;1.80;;;0.70;;
62633;SDS011;48704;50.534;6.442;2024-03-23T01:29:02;1.65;;;0.65;;
62633;SDS011;48704;50.534;6.442;2024-03-23T01:31:27;2.45;;;0.90;;
62633;SDS011;48704;50.534;6.442;2024-03-23T01:33:52;2.63;;;0.90;;
62633;SDS011;48704;50.534;6.442;2024-03-23T01:36:18;1.73;;;0.80;;
62633;SDS011;48704;50.534;6.442;2024-03-23T01:38:43;1.75;;;0.70;;
62633;SDS011;48704;50.534;6.442;2024-03-23T01:41:08;2.20;;;0.90;;
62633;SDS011;48704;50.534;6.442;2024-03-23T01:43:34;2.20;;;0.88;;
62633;SDS011;48704;50.534;6.442;2024-03-23T01:45:59;1.80;;;0.85;;
62633;SDS011;48704;50.534;6.442;2024-03-23T01:48:24;2.13;;;0.98;;
62633;SDS011;48704;50.534;6.442;2024-03-23T01:50:50;1.95;;;0.93;;
62633;SDS011;48704;50.534;6.442;2024-03-23T01:53:15;4.25;;;0.82;;
62633;SDS011;48704;50.534;6.442;2024-03-23T01:55:46;1.92;;;0.60;;
62633;SDS011;48704;50.534;6.442;2024-03-23T01:58:12;1.67;;;0.73;;
62633;SDS011;48704;50.534;6.442;2024-03-23T02:00:37;5.85;;;1.23;;
62633;SDS011;48704;50.534;6.442;2024-03-23T02:03:06;4.75;;;1.30;;
62633;SDS011;48704;50.534;6.442;2024-03-23T02:05:46;4.00;;;0.70;;
62633;SDS011;48704;50.534;6.442;2024-03-23T02:08:12;1.50;;;0.80;;
62633;SDS011;48704;50.534;6.442;2024-03-23T02:10:37;1.65;;;0.75;;
62633;SDS011;48704;50.534;6.442;2024-03-23T02:13:03;1.90;;;0.93;;
62633;SDS011;48704;50.534;6.442;2024-03-23T02:15:28;1.85;;;0.95;;
62633;SDS011;48704;50.534;6.442;2024-03-23T02:17:53;4.85;;;1.23;;
62633;SDS011;48704;50.534;6.442;2024-03-23T02:20:18;2.40;;;1.23;;
62633;SDS011;48704;50.534;6.442;2024-03-23T02:22:44;3.95;;;1.50;;
62633;SDS011;48704;50.534;6.442;2024-03-23T02:25:09;3.58;;;1.23;;
62633;SDS011;48704;50.534;6.442;2024-03-23T02:27:34;1.85;;;0.90;;
62633;SDS011;48704;50.534;6.442;2024-03-23T02:30:01;2.25;;;1.10;;
62633;SDS011;48704;50.534;6.442;2024-03-23T02:32:26;2.83;;;0.88;;
62633;SDS011;48704;50.534;6.442;2024-03-23T02:34:51;1.77;;;1.00;;
62633;SDS011;48704;50.534;6.442;2024-03-23T02:37:17;3.58;;;0.98;;
62633;SDS011;48704;50.534;6.442;2024-03-23T02:39:42;2.40;;;1.02;;
62633;SDS011;48704;50.534;6.442;2024-03-23T02:42:07;5.10;;;0.95;;
62633;SDS011;48704;50.534;6.442;2024-03-23T02:44:33;1.27;;;0.65;;
62633;SDS011;48704;50.534;6.442;2024-03-23T02:46:58;5.50;;;1.15;;
62633;SDS011;48704;50.534;6.442;2024-03-23T02:49:23;5.47;;;1.23;;
62633;SDS011;48704;50.534;6.442;2024-03-23T02:51:48;2.70;;;1.13;;
62633;SDS011;48704;50.534;6.442;2024-03-23T02:54:14;5.80;;;1.73;;
62633;SDS011;48704;50.534;6.442;2024-03-23T02:56:39;6.43;;;1.70;;
62633;SDS011;48704;50.534;6.442;2024-03-23T02:59:05;4.38;;;1.75;;
62633;SDS011;48704;50.534;6.442;2024-03-23T03:01:30;5.65;;;2.00;;
62633;SDS011;48704;50.534;6.442;2024-03-23T03:03:55;3.05;;;1.35;;
62633;SDS011;48704;50.534;6.442;2024-03-23T03:06:24;6.50;;;1.80;;
62633;SDS011;48704;50.534;6.442;2024-03-23T03:08:50;3.85;;;2.10;;
62633;SDS011;48704;50.534;6.442;2024-03-23T03:11:16;9.65;;;2.50;;
62633;SDS011;48704;50.534;6.442;2024-03-23T03:13:41;5.78;;;1.73;;
62633;SDS011;48704;50.534;6.442;2024-03-23T03:16:10;3.80;;;2.10;;
62633;SDS011;48704;50.534;6.442;2024-03-23T03:18:35;3.60;;;1.63;;
62633;SDS011;48704;50.534;6.442;2024-03-23T03:21:00;6.13;;;2.33;;
62633;SDS011;48704;50.534;6.442;2024-03-23T03:23:26;4.25;;;1.70;;
62633;SDS011;48704;50.534;6.442;2024-03-23T03:25:52;5.60;;;2.40;;
62633;SDS011;48704;50.534;6.442;2024-03-23T03:28:17;6.80;;;2.33;;
62633;SDS011;48704;50.534;6.442;2024-03-23T03:30:42;7.18;;;3.05;;
62633;SDS011;48704;50.534;6.442;2024-03-23T03:33:07;4.15;;;2.30;;
62633;SDS011;48704;50.534;6.442;2024-03-23T03:35:33;3.70;;;2.50;;
62633;SDS011;48704;50.534;6.442;2024-03-23T03:37:58;4.22;;;2.17;;
62633;SDS011;48704;50.534;6.442;2024-03-23T03:40:23;4.28;;;2.53;;
62633;SDS011;48704;50.534;6.442;2024-03-23T03:42:50;7.85;;;2.47;;
62633;SDS011;48704;50.534;6.442;2024-03-23T03:45:15;8.52;;;2.58;;
62633;SDS011;48704;50.534;6.442;2024-03-23T03:47:40;5.88;;;2.20;;
62633;SDS011;48704;50.534;6.442;2024-03-23T03:50:06;5.97;;;2.30;;
62633;SDS011;48704;50.534;6.442;2024-03-23T03:52:31;6.85;;;2.53;;
62633;SDS011;48704;50.534;6.442;2024-03-23T03:55:01;6.50;;;2.38;;
62633;SDS011;48704;50.534;6.442;2024-03-23T03:57:27;5.30;;;1.95;;
62633;SDS011;48704;50.534;6.442;2024-03-23T03:59:52;5.43;;;2.00;;
62633;SDS011;48704;50.534;6.442;2024-03-23T04:02:18;7.25;;;2.53;;
62633;SDS011;48704;50.534;6.442;2024-03-23T04:04:43;5.03;;;1.70;;
62633;SDS011;48704;50.534;6.442;2024-03-23T04:07:08;4.57;;;1.77;;
62633;SDS011;48704;50.534;6.442;2024-03-23T04:09:34;4.85;;;1.95;;
62633;SDS011;48704;50.534;6.442;2024-03-23T04:11:59;7.45;;;1.83;;
62633;SDS011;48704;50.534;6.442;2024-03-23T04:14:24;5.22;;;1.98;;
62633;SDS011;48704;50.534;6.442;2024-03-23T04:16:49;6.70;;;2.03;;
62633;SDS011;48704;50.534;6.442;2024-03-23T04:19:15;6.30;;;2.50;;
62633;SDS011;48704;50.534;6.442;2024-03-23T04:21:40;7.53;;;2.80;;
62633;SDS011;48704;50.534;6.442;2024-03-23T04:24:06;5.78;;;2.83;;
62633;SDS011;48704;50.534;6.442;2024-03-23T04:26:40;6.03;;;2.30;;
62633;SDS011;48704;50.534;6.442;2024-03-23T04:29:08;5.13;;;2.10;;
62633;SDS011;48704;50.534;6.442;2024-03-23T04:31:34;7.32;;;2.22;;
62633;SDS011;48704;50.534;6.442;2024-03-23T04:34:00;9.30;;;2.97;;
62633;SDS011;48704;50.534;6.442;2024-03-23T04:36:26;6.03;;;1.90;;
62633;SDS011;48704;50.534;6.442;2024-03-23T04:38:51;9.15;;;2.75;;
62633;SDS011;48704;50.534;6.442;2024-03-23T04:41:17;10.02;;;2.33;;
62633;SDS011;48704;50.534;6.442;2024-03-23T04:43:43;5.55;;;2.10;;
62633;SDS011;48704;50.534;6.442;2024-03-23T04:46:08;10.35;;;2.47;;
62633;SDS011;48704;50.534;6.442;2024-03-23T04:48:34;8.90;;;2.30;;
62633;SDS011;48704;50.534;6.442;2024-03-23T04:50:59;5.72;;;2.17;;
62633;SDS011;48704;50.534;6.442;2024-03-23T04:53:25;6.05;;;2.20;;
62633;SDS011;48704;50.534;6.442;2024-03-23T04:55:53;5.22;;;2.08;;
62633;SDS011;48704;50.534;6.442;2024-03-23T04:58:20;8.15;;;2.17;;
62633;SDS011;48704;50.534;6.442;2024-03-23T05:00:45;3.50;;;1.58;;
62633;SDS011;48704;50.534;6.442;2024-03-23T05:03:10;7.05;;;1.88;;
62633;SDS011;48704;50.534;6.442;2024-03-23T05:05:36;6.10;;;1.80;;
62633;SDS011;48704;50.534;6.442;2024-03-23T05:08:01;8.43;;;2.40;;
62633;SDS011;48704;50.534;6.442;2024-03-23T05:10:26;8.20;;;1.80;;
62633;SDS011;48704;50.534;6.442;2024-03-23T05:12:51;4.68;;;2.13;;
62633;SDS011;48704;50.534;6.442;2024-03-23T05:15:17;4.05;;;1.95;;
62633;SDS011;48704;50.534;6.442;2024-03-23T05:17:42;5.20;;;2.70;;
62633;SDS011;48704;50.534;6.442;2024-03-23T05:20:07;7.88;;;2.40;;
62633;SDS011;48704;50.534;6.442;2024-03-23T05:22:35;8.65;;;1.88;;
62633;SDS011;48704;50.534;6.442;2024-03-23T05:25:03;10.32;;;2.20;;
62633;SDS011;48704;50.534;6.442;2024-03-23T05:27:32;8.25;;;2.58;;
62633;SDS011;48704;50.534;6.442;2024-03-23T05:29:58;10.48;;;1.70;;
62633;SDS011;48704;50.534;6.442;2024-03-23T05:32:23;12.00;;;2.20;;
62633;SDS011;48704;50.534;6.442;2024-03-23T05:34:49;11.73;;;3.05;;
62633;SDS011;48704;50.534;6.442;2024-03-23T05:37:20;12.93;;;3.00;;
62633;SDS011;48704;50.534;6.442;2024-03-23T05:39:45;10.70;;;2.67;;
62633;SDS011;48704;50.534;6.442;2024-03-23T05:42:13;8.40;;;2.85;;
62633;SDS011;48704;50.534;6.442;2024-03-23T05:44:39;9.20;;;3.45;;
62633;SDS011;48704;50.534;6.442;2024-03-23T05:47:04;15.35;;;2.88;;
62633;SDS011;48704;50.534;6.442;2024-03-23T05:49:30;5.88;;;1.92;;
62633;SDS011;48704;50.534;6.442;2024-03-23T05:51:55;8.85;;;2.75;;
62633;SDS011;48704;50.534;6.442;2024-03-23T05:54:21;4.88;;;2.50;;
62633;SDS011;48704;50.534;6.442;2024-03-23T05:56:46;7.57;;;2.53;;
62633;SDS011;48704;50.534;6.442;2024-03-23T05:59:11;9.90;;;2.65;;
62633;SDS011;48704;50.534;6.442;2024-03-23T06:01:36;8.70;;;2.33;;
62633;SDS011;48704;50.534;6.442;2024-03-23T06:04:03;9.93;;;3.42;;
62633;SDS011;48704;50.534;6.442;2024-03-23T06:06:29;9.35;;;2.33;;
62633;SDS011;48704;50.534;6.442;2024-03-23T06:08:55;12.63;;;3.13;;
62633;SDS011;48704;50.534;6.442;2024-03-23T06:11:20;15.93;;;3.90;;
62633;SDS011;48704;50.534;6.442;2024-03-23T06:13:46;9.70;;;3.17;;
62633;SDS011;48704;50.534;6.442;2024-03-23T06:16:11;14.10;;;3.17;;
62633;SDS011;48704;50.534;6.442;2024-03-23T06:18:36;6.68;;;3.08;;
62633;SDS011;48704;50.534;6.442;2024-03-23T06:21:01;13.20;;;4.05;;
62633;SDS011;48704;50.534;6.442;2024-03-23T06:23:27;10.35;;;3.75;;
62633;SDS011;48704;50.534;6.442;2024-03-23T06:25:52;16.65;;;5.00;;
62633;SDS011;48704;50.534;6.442;2024-03-23T06:28:17;16.67;;;4.18;;
62633;SDS011;48704;50.534;6.442;2024-03-23T06:30:43;18.88;;;5.07;;
62633;SDS011;48704;50.534;6.442;2024-03-23T06:33:08;16.17;;;5.85;;
62633;SDS011;48704;50.534;6.442;2024-03-23T06:35:34;16.58;;;5.07;;
62633;SDS011;48704;50.534;6.442;2024-03-23T06:37:59;15.32;;;7.07;;
62633;SDS011;48704;50.534;6.442;2024-03-23T06:40:24;17.80;;;6.47;;
62633;SDS011;48704;50.534;6.442;2024-03-23T06:42:50;19.63;;;7.13;;
62633;SDS011;48704;50.534;6.442;2024-03-23T06:45:16;19.55;;;6.88;;
62633;SDS011;48704;50.534;6.442;2024-03-23T06:47:41;11.57;;;6.18;;
62633;SDS011;48704;50.534;6.442;2024-03-23T06:50:07;14.98;;;5.55;;
62633;SDS011;48704;50.534;6.442;2024-03-23T06:52:32;24.55;;;5.90;;
62633;SDS011;48704;50.534;6.442;2024-03-23T06:54:57;13.70;;;5.10;;
62633;SDS011;48704;50.534;6.442;2024-03-23T06:57:23;10.75;;;5.15;;
62633;SDS011;48704;50.534;6.442;2024-03-23T06:59:48;10.77;;;5.82;;
62633;SDS011;48704;50.534;6.442;2024-03-23T07:02:14;9.90;;;4.53;;
62633;SDS011;48704;50.534;6.442;2024-03-23T07:04:39;17.48;;;6.53;;
62633;SDS011;48704;50.534;6.442;2024-03-23T07:07:04;15.13;;;5.40;;
62633;SDS011;48704;50.534;6.442;2024-03-23T07:09:30;17.30;;;5.53;;
62633;SDS011;48704;50.534;6.442;2024-03-23T07:11:56;17.20;;;6.05;;
62633;SDS011;48704;50.534;6.442;2024-03-23T07:14:22;15.48;;;6.22;;
62633;SDS011;48704;50.534;6.442;2024-03-23T07:16:48;14.73;;;4.93;;
62633;SDS011;48704;50.534;6.442;2024-03-23T07:19:14;12.18;;;5.13;;
62633;SDS011;48704;50.534;6.442;2024-03-23T07:21:41;9.68;;;4.40;;
62633;SDS011;48704;50.534;6.442;2024-03-23T07:24:07;16.63;;;5.72;;
62633;SDS011;48704;50.534;6.442;2024-03-23T07:26:32;14.68;;;5.35;;
62633;SDS011;48704;50.534;6.442;2024-03-23T07:28:58;17.20;;;5.90;;
62633;SDS011;48704;50.534;6.442;2024-03-23T07:31:23;17.98;;;6.10;;
62633;SDS011;48704;50.534;6.442;2024-03-23T07:33:50;25.02;;;7.47;;
62633;SDS011;48704;50.534;6.442;2024-03-23T07:36:15;13.18;;;6.22;;
62633;SDS011;48704;50.534;6.442;2024-03-23T07:38:41;12.45;;;5.82;;
62633;SDS011;48704;50.534;6.442;2024-03-23T07:41:10;14.65;;;5.93;;
62633;SDS011;48704;50.534;6.442;2024-03-23T07:43:37;15.48;;;5.75;;
62633;SDS011;48704;50.534;6.442;2024-03-23T07:46:04;15.35;;;5.63;;
62633;SDS011;48704;50.534;6.442;2024-03-23T07:48:29;15.68;;;6.43;;
62633;SDS011;48704;50.534;6.442;2024-03-23T07:53:28;13.10;;;5.53;;
62633;SDS011;48704;50.534;6.442;2024-03-23T07:55:55;12.25;;;5.05;;
62633;SDS011;48704;50.534;6.442;2024-03-23T07:58:24;10.52;;;3.97;;
62633;SDS011;48704;50.534;6.442;2024-03-23T08:00:50;7.90;;;3.33;;
62633;SDS011;48704;50.534;6.442;2024-03-23T08:03:15;11.48;;;4.30;;
62633;SDS011;48704;50.534;6.442;2024-03-23T08:05:40;5.32;;;2.83;;
62633;SDS011;48704;50.534;6.442;2024-03-23T08:08:06;7.95;;;3.55;;
62633;SDS011;48704;50.534;6.442;2024-03-23T08:10:31;10.60;;;3.08;;
62633;SDS011;48704;50.534;6.442;2024-03-23T08:12:57;11.32;;;3.22;;
62633;SDS011;48704;50.534;6.442;2024-03-23T08:15:22;7.60;;;3.28;;
62633;SDS011;48704;50.534;6.442;2024-03-23T08:17:48;10.68;;;3.45;;
62633;SDS011;48704;50.534;6.442;2024-03-23T08:20:14;6.93;;;2.22;;
62633;SDS011;48704;50.534;6.442;2024-03-23T08:22:39;9.20;;;3.05;;
62633;SDS011;48704;50.534;6.442;2024-03-23T08:25:05;9.82;;;2.78;;
62633;SDS011;48704;50.534;6.442;2024-03-23T08:27:31;9.75;;;2.90;;
62633;SDS011;48704;50.534;6.442;2024-03-23T08:29:56;4.70;;;2.03;;
62633;SDS011;48704;50.534;6.442;2024-03-23T08:32:21;10.30;;;2.75;;
62633;SDS011;48704;50.534;6.442;2024-03-23T08:34:46;8.88;;;2.53;;
62633;SDS011;48704;50.534;6.442;2024-03-23T08:37:12;10.52;;;3.05;;
62633;SDS011;48704;50.534;6.442;2024-03-23T08:39:37;7.32;;;2.70;;
62633;SDS011;48704;50.534;6.442;2024-03-23T08:42:02;4.03;;;2.13;;
62633;SDS011;48704;50.534;6.442;2024-03-23T08:44:28;7.78;;;2.92;;
62633;SDS011;48704;50.534;6.442;2024-03-23T08:46:55;9.20;;;2.70;;
62633;SDS011;48704;50.534;6.442;2024-03-23T08:49:21;11.73;;;4.15;;
62633;SDS011;48704;50.534;6.442;2024-03-23T08:51:46;7.50;;;2.78;;
62633;SDS011;48704;50.534;6.442;2024-03-23T08:54:11;8.93;;;2.85;;
62633;SDS011;48704;50.534;6.442;2024-03-23T08:56:37;7.05;;;2.83;;
62633;SDS011;48704;50.534;6.442;2024-03-23T08:59:02;11.75;;;3.53;;
62633;SDS011;48704;50.534;6.442;2024-03-23T09:01:28;13.82;;;3.88;;
62633;SDS011;48704;50.534;6.442;2024-03-23T09:03:53;6.30;;;3.05;;
62633;SDS011;48704;50.534;6.442;2024-03-23T09:06:18;8.40;;;2.70;;
62633;SDS011;48704;50.534;6.442;2024-03-23T09:08:44;8.05;;;2.70;;
62633;SDS011;48704;50.534;6.442;2024-03-23T09:11:11;10.65;;;3.58;;
62633;SDS011;48704;50.534;6.442;2024-03-23T09:13:37;14.00;;;4.10;;
62633;SDS011;48704;50.534;6.442;2024-03-23T09:16:04;6.78;;;3.10;;
62633;SDS011;48704;50.534;6.442;2024-03-23T09:18:33;7.57;;;2.75;;
62633;SDS011;48704;50.534;6.442;2024-03-23T09:21:00;7.00;;;3.42;;
62633;SDS011;48704;50.534;6.442;2024-03-23T09:23:26;12.23;;;4.10;;
62633;SDS011;48704;50.534;6.442;2024-03-23T09:25:51;11.27;;;2.50;;
62633;SDS011;48704;50.534;6.442;2024-03-23T09:28:16;14.77;;;5.18;;
62633;SDS011;48704;50.534;6.442;2024-03-23T09:30:42;11.10;;;4.43;;
62633;SDS011;48704;50.534;6.442;2024-03-23T09:33:13;9.70;;;2.97;;
62633;SDS011;48704;50.534;6.442;2024-03-23T09:35:39;10.32;;;3.55;;
62633;SDS011;48704;50.534;6.442;2024-03-23T09:38:05;10.85;;;3.17;;
62633;SDS011;48704;50.534;6.442;2024-03-23T09:40:32;9.98;;;3.50;;
62633;SDS011;48704;50.534;6.442;2024-03-23T09:42:57;11.73;;;3.45;;
62633;SDS011;48704;50.534;6.442;2024-03-23T09:45:27;9.93;;;3.75;;
62633;SDS011;48704;50.534;6.442;2024-03-23T09:47:53;11.02;;;3.47;;
62633;SDS011;48704;50.534;6.442;2024-03-23T09:50:19;8.15;;;3.08;;
62633;SDS011;48704;50.534;6.442;2024-03-23T09:52:48;11.32;;;3.90;;
62633;SDS011;48704;50.534;6.442;2024-03-23T09:55:13;10.93;;;3.70;;
62633;SDS011;48704;50.534;6.442;2024-03-23T09:57:40;8.48;;;3.28;;
62633;SDS011;48704;50.534;6.442;2024-03-23T10:00:06;6.80;;;2.88;;
62633;SDS011;48704;50.534;6.442;2024-03-23T10:02:32;2.35;;;0.60;;
62633;SDS011;48704;50.534;6.442;2024-03-23T10:04:59;0.90;;;0.50;;
62633;SDS011;48704;50.534;6.442;2024-03-23T10:07:25;0.80;;;0.30;;
62633;SDS011;48704;50.534;6.442;2024-03-23T10:09:50;1.35;;;0.70;;
62633;SDS011;48704;50.534;6.442;2024-03-23T10:12:19;1.27;;;0.60;;
62633;SDS011;48704;50.534;6.442;2024-03-23T10:14:45;3.17;;;1.05;;
62633;SDS011;48704;50.534;6.442;2024-03-23T10:17:21;1.85;;;0.90;;
62633;SDS011;48704;50.534;6.442;2024-03-23T10:19:50;1.73;;;0.82;;
62633;SDS011;48704;50.534;6.442;2024-03-23T10:24:47;1.77;;;0.82;;
62633;SDS011;48704;50.534;6.442;2024-03-23T10:27:17;5.05;;;1.70;;
62633;SDS011;48704;50.534;6.442;2024-03-23T10:29:47;3.50;;;1.20;;
62633;SDS011;48704;50.534;6.442;2024-03-23T10:32:13;2.38;;;1.00;;
62633;SDS011;48704;50.534;6.442;2024-03-23T10:34:39;4.32;;;1.20;;
62633;SDS011;48704;50.534;6.442;2024-03-23T10:37:05;2.20;;;1.30;;
62633;SDS011;48704;50.534;6.442;2024-03-23T10:39:32;4.50;;;2.00;;
62633;SDS011;48704;50.534;6.442;2024-03-23T10:42:00;7.68;;;2.20;;
62633;SDS011;48704;50.534;6.442;2024-03-23T10:44:27;6.97;;;2.35;;
62633;SDS011;48704;50.534;6.442;2024-03-23T10:46:54;7.13;;;2.65;;
62633;SDS011;48704;50.534;6.442;2024-03-23T10:49:25;6.72;;;1.75;;
62633;SDS011;48704;50.534;6.442;2024-03-23T10:51:51;5.20;;;2.25;;
62633;SDS011;48704;50.534;6.442;2024-03-23T10:54:17;7.10;;;2.47;;
62633;SDS011;48704;50.534;6.442;2024-03-23T10:56:50;4.60;;;2.08;;
62633;SDS011;48704;50.534;6.442;2024-03-23T10:59:29;5.07;;;1.95;;
62633;SDS011;48704;50.534;6.442;2024-03-23T11:01:55;7.07;;;2.20;;
62633;SDS011;48704;50.534;6.442;2024-03-23T11:04:39;2.55;;;1.33;;
62633;SDS011;48704;50.534;6.442;2024-03-23T11:09:48;6.90;;;2.08;;
62633;SDS011;48704;50.534;6.442;2024-03-23T11:14:48;7.70;;;2.22;;
62633;SDS011;48704;50.534;6.442;2024-03-23T11:17:17;5.38;;;2.42;;
62633;SDS011;48704;50.534;6.442;2024-03-23T11:19:43;6.43;;;2.88;;
62633;SDS011;48704;50.534;6.442;2024-03-23T11:22:09;5.13;;;1.92;;
62633;SDS011;48704;50.534;6.442;2024-03-23T11:24:34;8.70;;;2.08;;
62633;SDS011;48704;50.534;6.442;2024-03-23T11:27:00;7.97;;;3.17;;
62633;SDS011;48704;50.534;6.442;2024-03-23T11:29:28;8.93;;;3.42;;
62633;SDS011;48704;50.534;6.442;2024-03-23T11:31:55;8.40;;;3.17;;
62633;SDS011;48704;50.534;6.442;2024-03-23T11:34:20;8.50;;;2.63;;
62633;SDS011;48704;50.534;6.442;2024-03-23T11:36:46;10.85;;;3.50;;
62633;SDS011;48704;50.534;6.442;2024-03-23T11:39:13;7.63;;;3.35;;
62633;SDS011;48704;50.534;6.442;2024-03-23T11:41:55;5.85;;;2.58;;
62633;SDS011;48704;50.534;6.442;2024-03-23T11:44:22;8.93;;;3.20;;
62633;SDS011;48704;50.534;6.442;2024-03-23T11:46:48;10.93;;;3.05;;
62633;SDS011;48704;50.534;6.442;2024-03-23T11:49:27;6.40;;;2.53;;
62633;SDS011;48704;50.534;6.442;2024-03-23T11:51:55;6.85;;;2.22;;
62633;SDS011;48704;50.534;6.442;2024-03-23T11:54:25;7.40;;;2.08;;
62633;SDS011;48704;50.534;6.442;2024-03-23T11:56:58;4.85;;;2.08;;
62633;SDS011;48704;50.534;6.442;2024-03-23T12:02:09;4.18;;;2.08;;
62633;SDS011;48704;50.534;6.442;2024-03-23T12:04:36;3.70;;;2.08;;
62633;SDS011;48704;50.534;6.442;2024-03-23T12:07:11;8.02;;;2.08;;
62633;SDS011;48704;50.534;6.442;2024-03-23T12:09:37;9.45;;;2.03;;
62633;SDS011;48704;50.534;6.442;2024-03-23T12:12:07;20.40;;;3.00;;
62633;SDS011;48704;50.534;6.442;2024-03-23T12:14:33;2.50;;;1.17;;
62633;SDS011;48704;50.534;6.442;2024-03-23T12:17:12;3.15;;;1.33;;
62633;SDS011;48704;50.534;6.442;2024-03-23T12:19:38;4.57;;;1.95;;
62633;SDS011;48704;50.534;6.442;2024-03-23T12:22:05;3.03;;;1.23;;
62633;SDS011;48704;50.534;6.442;2024-03-23T12:24:32;6.25;;;1.23;;
62633;SDS011;48704;50.534;6.442;2024-03-23T12:27:02;5.72;;;1.42;;
62633;SDS011;48704;50.534;6.442;2024-03-23T12:29:30;3.03;;;1.15;;
62633;SDS011;48704;50.534;6.442;2024-03-23T12:31:58;3.70;;;1.67;;
62633;SDS011;48704;50.534;6.442;2024-03-23T12:34:24;4.90;;;1.15;;
62633;SDS011;48704;50.534;6.442;2024-03-23T12:36:50;1.83;;;1.00;;
62633;SDS011;48704;50.534;6.442;2024-03-23T12:39:15;4.03;;;1.40;;
62633;SDS011;48704;50.534;6.442;2024-03-23T12:41:40;2.42;;;0.68;;
62633;SDS011;48704;50.534;6.442;2024-03-23T12:44:05;2.85;;;1.30;;
62633;SDS011;48704;50.534;6.442;2024-03-23T12:46:33;3.13;;;1.20;;
62633;SDS011;48704;50.534;6.442;2024-03-23T12:48:58;2.63;;;1.10;;
62633;SDS011;48704;50.534;6.442;2024-03-23T12:51:24;9.35;;;2.13;;
62633;SDS011;48704;50.534;6.442;2024-03-23T12:53:50;3.90;;;1.17;;
62633;SDS011;48704;50.534;6.442;2024-03-23T12:56:15;3.25;;;1.00;;
62633;SDS011;48704;50.534;6.442;2024-03-23T12:58:41;4.88;;;1.05;;
62633;SDS011;48704;50.534;6.442;2024-03-23T13:01:06;3.08;;;1.05;;
62633;SDS011;48704;50.534;6.442;2024-03-23T13:03:31;4.50;;;1.23;;
62633;SDS011;48704;50.534;6.442;2024-03-23T13:05:57;3.28;;;1.25;;
62633;SDS011;48704;50.534;6.442;2024-03-23T13:08:22;6.03;;;1.10;;
62633;SDS011;48704;50.534;6.442;2024-03-23T13:10:47;3.60;;;1.00;;
62633;SDS011;48704;50.534;6.442;2024-03-23T13:13:16;2.78;;;1.00;;
62633;SDS011;48704;50.534;6.442;2024-03-23T13:15:42;3.78;;;0.80;;
62633;SDS011;48704;50.534;6.442;2024-03-23T13:18:07;4.05;;;1.67;;
62633;SDS011;48704;50.534;6.442;2024-03-23T13:20:35;5.88;;;1.58;;
62633;SDS011;48704;50.534;6.442;2024-03-23T13:23:00;6.03;;;1.10;;
62633;SDS011;48704;50.534;6.442;2024-03-23T13:25:26;6.03;;;1.20;;
62633;SDS011;48704;50.534;6.442;2024-03-23T13:27:51;3.53;;;1.60;;
62633;SDS011;48704;50.534;6.442;2024-03-23T13:30:16;1.33;;;0.50;;
62633;SDS011;48704;50.534;6.442;2024-03-23T13:32:42;0.98;;;0.30;;
62633;SDS011;48704;50.534;6.442;2024-03-23T13:35:07;2.10;;;0.63;;
62633;SDS011;48704;50.534;6.442;2024-03-23T13:37:32;1.70;;;0.40;;
62633;SDS011;48704;50.534;6.442;2024-03-23T13:39:58;1.23;;;0.40;;
62633;SDS011;48704;50.534;6.442;2024-03-23T13:42:24;1.92;;;0.63;;
62633;SDS011;48704;50.534;6.442;2024-03-23T13:44:51;2.53;;;0.70;;
62633;SDS011;48704;50.534;6.442;2024-03-23T13:47:16;2.05;;;0.40;;
62633;SDS011;48704;50.534;6.442;2024-03-23T13:49:41;1.92;;;0.70;;
62633;SDS011;48704;50.534;6.442;2024-03-23T13:52:06;3.40;;;0.40;;
62633;SDS011;48704;50.534;6.442;2024-03-23T13:54:32;0.88;;;0.50;;
62633;SDS011;48704;50.534;6.442;2024-03-23T13:56:57;1.52;;;0.55;;
62633;SDS011;48704;50.534;6.442;2024-03-23T13:59:23;0.80;;;0.35;;
62633;SDS011;48704;50.534;6.442;2024-03-23T14:01:49;0.45;;;0.30;;
62633;SDS011;48704;50.534;6.442;2024-03-23T14:04:15;1.17;;;0.50;;
62633;SDS011;48704;50.534;6.442;2024-03-23T14:06:47;4.35;;;0.57;;
62633;SDS011;48704;50.534;6.442;2024-03-23T14:09:13;3.63;;;0.75;;
62633;SDS011;48704;50.534;6.442;2024-03-23T14:11:39;1.27;;;0.60;;
62633;SDS011;48704;50.534;6.442;2024-03-23T14:14:07;1.50;;;0.50;;
62633;SDS011;48704;50.534;6.442;2024-03-23T14:16:33;2.15;;;0.40;;
62633;SDS011;48704;50.534;6.442;2024-03-23T14:18:58;3.88;;;0.98;;
62633;SDS011;48704;50.534;6.442;2024-03-23T14:21:24;1.25;;;0.50;;
62633;SDS011;48704;50.534;6.442;2024-03-23T14:23:50;5.88;;;0.90;;
62633;SDS011;48704;50.534;6.442;2024-03-23T14:26:15;1.38;;;0.38;;
62633;SDS011;48704;50.534;6.442;2024-03-23T14:28:41;3.60;;;0.50;;
62633;SDS011;48704;50.534;6.442;2024-03-23T14:31:06;0.75;;;0.40;;
62633;SDS011;48704;50.534;6.442;2024-03-23T14:33:35;4.63;;;0.82;;
62633;SDS011;48704;50.534;6.442;2024-03-23T14:36:11;0.80;;;0.50;;
62633;SDS011;48704;50.534;6.442;2024-03-23T14:38:36;2.03;;;0.57;;
62633;SDS011;48704;50.534;6.442;2024-03-23T14:41:01;0.82;;;0.30;;
62633;SDS011;48704;50.534;6.442;2024-03-23T14:43:29;3.47;;;0.65;;
62633;SDS011;48704;50.534;6.442;2024-03-23T14:46:10;1.40;;;0.50;;
62633;SDS011;48704;50.534;6.442;2024-03-23T14:48:37;1.70;;;0.40;;
62633;SDS011;48704;50.534;6.442;2024-03-23T14:51:04;1.27;;;0.40;;
62633;SDS011;48704;50.534;6.442;2024-03-23T14:53:34;2.20;;;0.60;;
62633;SDS011;48704;50.534;6.442;2024-03-23T14:56:00;1.25;;;0.60;;
62633;SDS011;48704;50.534;6.442;2024-03-23T14:58:27;4.78;;;0.77;;
62633;SDS011;48704;50.534;6.442;2024-03-23T15:00:53;3.67;;;0.95;;
62633;SDS011;48704;50.534;6.442;2024-03-23T15:03:24;2.92;;;1.00;;
62633;SDS011;48704;50.534;6.442;2024-03-23T15:05:52;3.30;;;0.80;;
62633;SDS011;48704;50.534;6.442;2024-03-23T15:08:19;0.60;;;0.40;;
62633;SDS011;48704;50.534;6.442;2024-03-23T15:10:44;1.73;;;0.50;;
62633;SDS011;48704;50.534;6.442;2024-03-23T15:13:09;3.67;;;0.60;;
62633;SDS011;48704;50.534;6.442;2024-03-23T15:15:39;1.40;;;0.57;;
62633;SDS011;48704;50.534;6.442;2024-03-23T15:18:06;3.72;;;0.82;;
62633;SDS011;48704;50.534;6.442;2024-03-23T15:20:31;1.30;;;0.57;;
62633;SDS011;48704;50.534;6.442;2024-03-23T15:23:00;2.53;;;0.43;;
62633;SDS011;48704;50.534;6.442;2024-03-23T15:25:26;3.65;;;0.70;;
62633;SDS011;48704;50.534;6.442;2024-03-23T15:27:52;1.88;;;0.40;;
62633;SDS011;48704;50.534;6.442;2024-03-23T15:30:18;4.20;;;0.73;;
62633;SDS011;48704;50.534;6.442;2024-03-23T15:32:43;6.03;;;0.85;;
62633;SDS011;48704;50.534;6.442;2024-03-23T15:35:09;3.80;;;0.93;;
62633;SDS011;48704;50.534;6.442;2024-03-23T15:37:34;3.70;;;0.60;;
62633;SDS011;48704;50.534;6.442;2024-03-23T15:39:59;2.45;;;0.82;;
62633;SDS011;48704;50.534;6.442;2024-03-23T15:42:25;4.72;;;1.27;;
62633;SDS011;48704;50.534;6.442;2024-03-23T15:44:50;2.70;;;1.08;;